Time,TemperatureF,DewpointF,PressureIn,WindDirection,WindDirectionDegrees,WindSpeedMPH,WindSpeedGustMPH,Humidity,HourlyPrecipIn,Conditions,Clouds,dailyrainin,SoftwareType,DateUTC
2013-01-19 00:02:00,57.1,52.6,30.24,NE,39,3.0,5.0,85,0.00,OVC,,0.00,WeatherDisplay:10.37,2013-01-19 05:02:00,
2013-01-19 00:03:00,57.1,52.6,30.24,NE,49,3.8,3.8,85,0.00,OVC,,0.00,WeatherDisplay:10.37,2013-01-19 05:03:00,
2013-01-19 00:08:00,57.1,52.6,30.24,NNE,29,1.0,3.5,85,0.00,OVC,,0.00,WeatherDisplay:10.37,2013-01-19 05:08:00,
2013-01-19 00:13:00,57.1,52.6,30.24,NE,34,2.2,3.0,85,0.00,OVC,,0.00,WeatherDisplay:10.37,2013-01-19 05:13:00,
2013-01-19 00:18:00,56.9,52.8,30.24,NNE,13,2.2,4.6,86,0.00,OVC,,0.00,WeatherDisplay:10.37,2013-01-19 05:18:00,
2013-01-19 00:23:00,56.6,52.5,30.24,North,354,4.7,8.1,86,0.00,OVC,,0.00,WeatherDisplay:10.37,2013-01-19 05:23:00,
2013-01-19 00:28:00,56.4,52.3,30.23,NNE,25,5.6,6.9,86,0.00,OVC,,0.00,WeatherDisplay:10.37,2013-01-19 05:28:00,
2013-01-19 00:33:00,56.2,52.4,30.23,NE,34,2.3,5.8,87,0.00,OVC,,0.00,WeatherDisplay:10.37,2013-01-19 05:33:00,
2013-01-19 00:38:00,56.3,52.2,30.23,NNE,19,3.3,8.1,86,0.00,OVC,,0.00,WeatherDisplay:10.37,2013-01-19 05:38:00,
2013-01-19 00:43:00,56.3,52.2,30.23,NNE,27,1.5,3.5,86,0.00,OVC,,0.00,WeatherDisplay:10.37,2013-01-19 05:43:00,
2013-01-19 00:49:00,56.3,52.2,30.23,NNE,21,4.0,5.8,86,0.00,OVC,,0.00,WeatherDisplay:10.37,2013-01-19 05:49:00,
2013-01-19 00:53:00,56.4,51.9,30.23,NNE,21,5.3,12.7,85,0.00,OVC,,0.00,WeatherDisplay:10.37,2013-01-19 05:53:00,
2013-01-19 00:58:00,56.4,51.9,30.23,NNE,27,3.6,5.8,85,0.00,OVC,,0.00,WeatherDisplay:10.37,2013-01-19 05:58:00,
2013-01-19 01:03:00,56.5,51.7,30.23,NE,48,4.2,4.6,84,0.00,OVC,,0.00,WeatherDisplay:10.37,2013-01-19 06:03:00,
2013-01-19 01:08:00,56.5,51.7,30.23,NNE,16,3.4,6.0,84,0.00,OVC,,0.00,WeatherDisplay:10.37,2013-01-19 06:08:00,
2013-01-19 01:13:00,56.5,52.0,30.23,North,352,4.4,6.0,85,0.00,OVC,,0.00,WeatherDisplay:10.37,2013-01-19 06:13:00,
2013-01-19 01:18:00,56.5,52.4,30.23,North,6,4.4,10.4,86,0.00,OVC,,0.00,WeatherDisplay:10.37,2013-01-19 06:18:00,
2013-01-19 01:24:00,56.3,52.2,30.23,North,354,6.1,10.4,86,0.00,OVC,,0.00,WeatherDisplay:10.37,2013-01-19 06:24:00,
2013-01-19 01:29:00,56.1,52.3,30.23,NNW,329,6.1,8.1,87,0.00,OVC,,0.00,WeatherDisplay:10.37,2013-01-19 06:29:00,
2013-01-19 01:34:00,55.8,52.0,30.23,NNE,25,5.3,9.2,87,0.00,OVC,,0.00,WeatherDisplay:10.37,2013-01-19 06:34:00,
2013-01-19 01:39:00,55.6,52.1,30.23,NNE,13,6.6,8.0,88,0.00,OVC,,0.00,WeatherDisplay:10.37,2013-01-19 06:39:00,
2013-01-19 01:44:00,55.7,51.9,30.22,NNE,19,5.6,8.1,87,0.00,OVC,,0.00,WeatherDisplay:10.37,2013-01-19 06:44:00,
2013-01-19 01:49:00,55.8,51.7,30.22,NE,40,4.6,8.1,86,0.00,OVC,,0.00,WeatherDisplay:10.37,2013-01-19 06:49:00,
2013-01-19 01:54:00,55.9,51.5,30.22,NNE,13,4.5,6.9,85,0.00,OVC,,0.00,WeatherDisplay:10.37,2013-01-19 06:54:00,
2013-01-19 01:59:00,56.0,51.6,30.22,NNE,23,3.1,10.4,85,0.00,OVC,,0.00,WeatherDisplay:10.37,2013-01-19 06:59:00,
2013-01-19 02:04:00,56.0,51.6,30.22,NNE,29,2.7,6.9,85,0.00,OVC,,0.00,WeatherDisplay:10.37,2013-01-19 07:04:00,
2013-01-19 02:09:00,56.0,51.2,30.21,North,11,4.2,10.4,84,0.00,OVC,,0.00,WeatherDisplay:10.37,2013-01-19 07:09:00,
2013-01-19 02:14:00,56.1,51.3,30.21,NNE,23,3.1,8.1,84,0.00,OVC,,0.00,WeatherDisplay:10.37,2013-01-19 07:14:00,
2013-01-19 02:19:00,56.1,51.0,30.22,NNE,27,2.7,6.9,83,0.00,OVC,,0.00,WeatherDisplay:10.37,2013-01-19 07:19:00,
2013-01-19 02:24:00,55.9,50.8,30.21,NE,47,5.2,10.4,83,0.00,OVC,,0.00,WeatherDisplay:10.37,2013-01-19 07:24:00,
2013-01-19 02:29:00,55.9,50.5,30.21,NNE,33,8.2,10.4,82,0.00,OVC,,0.00,WeatherDisplay:10.37,2013-01-19 07:29:00,
2013-01-19 02:34:00,55.8,50.7,30.21,NNE,32,5.7,8.1,83,0.00,OVC,,0.00,WeatherDisplay:10.37,2013-01-19 07:34:00,
2013-01-19 02:39:00,55.7,50.6,30.21,North,8,4.3,6.0,83,0.00,OVC,,0.00,WeatherDisplay:10.37,2013-01-19 07:39:00,
2013-01-19 02:44:00,55.7,50.6,30.21,NNW,345,3.8,5.8,83,0.00,OVC,,0.00,WeatherDisplay:10.37,2013-01-19 07:44:00,
2013-01-19 02:49:00,55.5,50.7,30.21,NNE,26,4.2,9.2,84,0.00,OVC,,0.00,WeatherDisplay:10.37,2013-01-19 07:49:00,
2013-01-19 02:54:00,55.3,50.9,30.21,NNE,22,3.0,5.8,85,0.00,OVC,,0.00,WeatherDisplay:10.37,2013-01-19 07:54:00,
2013-01-19 02:59:00,55.0,51.2,30.21,NNE,23,2.0,5.0,87,0.00,OVC,,0.00,WeatherDisplay:10.37,2013-01-19 07:59:00,
2013-01-19 03:04:00,54.8,51.3,30.21,North,352,3.8,5.8,88,0.00,OVC,,0.00,WeatherDisplay:10.37,2013-01-19 08:04:00,
2013-01-19 03:09:00,54.5,51.3,30.20,NNE,23,4.2,5.8,89,0.00,OVC,,0.00,WeatherDisplay:10.37,2013-01-19 08:09:00,
2013-01-19 03:14:00,54.5,51.0,30.20,NNE,25,3.8,6.0,88,0.00,OVC,,0.00,WeatherDisplay:10.37,2013-01-19 08:14:00,
2013-01-19 03:19:00,54.5,51.0,30.20,NE,50,4.6,9.2,88,0.00,OVC,,0.00,WeatherDisplay:10.37,2013-01-19 08:19:00,
2013-01-19 03:24:00,54.7,51.5,30.20,NE,41,1.1,2.3,89,0.00,OVC,,0.00,WeatherDisplay:10.37,2013-01-19 08:24:00,
2013-01-19 03:29:00,54.7,51.2,30.21,NNE,32,2.6,4.0,88,0.00,OVC,,0.00,WeatherDisplay:10.37,2013-01-19 08:29:00,
2013-01-19 03:34:00,54.6,51.1,30.21,North,11,1.7,3.5,88,0.00,OVC,,0.00,WeatherDisplay:10.37,2013-01-19 08:34:00,
2013-01-19 03:39:00,54.7,51.2,30.21,NNE,20,2.2,4.0,88,0.00,OVC,,0.00,WeatherDisplay:10.37,2013-01-19 08:39:00,
2013-01-19 03:44:00,54.7,51.2,30.21,North,350,2.6,3.5,88,0.00,OVC,,0.00,WeatherDisplay:10.37,2013-01-19 08:44:00,
2013-01-19 03:49:00,54.6,50.8,30.20,NE,49,3.4,6.9,87,0.00,OVC,,0.00,WeatherDisplay:10.37,2013-01-19 08:49:00,
2013-01-19 03:54:00,54.6,50.8,30.20,NE,36,3.7,6.9,87,0.00,OVC,,0.00,WeatherDisplay:10.37,2013-01-19 08:54:00,
2013-01-19 03:59:00,54.6,50.8,30.20,North,9,6.4,8.1,87,0.00,OVC,,0.00,WeatherDisplay:10.37,2013-01-19 08:59:00,
2013-01-19 04:04:00,54.6,50.8,30.20,North,350,4.6,5.0,87,0.00,OVC,,0.00,WeatherDisplay:10.37,2013-01-19 09:04:00,
2013-01-19 04:09:00,54.6,51.1,30.20,NNE,18,5.2,5.8,88,0.00,OVC,,0.00,WeatherDisplay:10.37,2013-01-19 09:09:00,
2013-01-19 04:14:00,54.3,51.1,30.20,North,354,4.1,8.1,89,0.00,OVC,,0.00,WeatherDisplay:10.37,2013-01-19 09:14:00,
2013-01-19 04:19:00,54.1,51.2,30.20,NNE,30,5.6,10.4,90,0.00,OVC,,0.00,WeatherDisplay:10.37,2013-01-19 09:19:00,
2013-01-19 04:24:00,53.9,51.0,30.19,NNE,23,5.9,10.4,90,0.00,OVC,,0.00,WeatherDisplay:10.37,2013-01-19 09:24:00,
2013-01-19 04:29:00,54.1,50.9,30.19,NNE,15,6.3,9.2,89,0.00,OVC,,0.00,WeatherDisplay:10.37,2013-01-19 09:29:00,
2013-01-19 04:34:00,54.2,51.0,30.19,NNE,23,3.1,6.9,89,0.00,OVC,,0.00,WeatherDisplay:10.37,2013-01-19 09:34:00,
2013-01-19 04:39:00,54.1,50.9,30.19,NE,36,2.6,3.5,89,0.00,OVC,,0.00,WeatherDisplay:10.37,2013-01-19 09:39:00,
2013-01-19 04:44:00,54.3,51.1,30.19,NNE,33,4.3,6.9,89,0.00,OVC,,0.00,WeatherDisplay:10.37,2013-01-19 09:44:00,
2013-01-19 04:49:00,54.6,51.1,30.19,NNE,24,5.3,8.1,88,0.00,OVC,,0.00,WeatherDisplay:10.37,2013-01-19 09:49:00,
2013-01-19 04:54:00,54.9,51.4,30.20,North,350,4.7,5.8,88,0.00,OVC,,0.00,WeatherDisplay:10.37,2013-01-19 09:54:00,
2013-01-19 04:59:00,55.0,51.2,30.20,NNE,16,3.8,5.8,87,0.00,OVC,,0.00,WeatherDisplay:10.37,2013-01-19 09:59:00,
2013-01-19 05:04:00,55.1,51.6,30.20,NE,37,4.7,10.4,88,0.00,OVC,,0.00,WeatherDisplay:10.37,2013-01-19 10:04:00,
2013-01-19 05:09:00,55.0,51.8,30.20,NNE,30,2.9,6.9,89,0.00,OVC,,0.00,WeatherDisplay:10.37,2013-01-19 10:09:00,
2013-01-19 05:14:00,54.6,52.0,30.20,North,4,3.9,3.9,91,0.00,OVC,,0.00,WeatherDisplay:10.37,2013-01-19 10:14:00,
2013-01-19 05:19:00,54.4,51.8,30.20,North,9,3.9,5.0,91,0.00,OVC,,0.00,WeatherDisplay:10.37,2013-01-19 10:19:00,
2013-01-19 05:24:00,54.3,51.7,30.20,NE,36,3.8,5.8,91,0.00,OVC,,0.00,WeatherDisplay:10.37,2013-01-19 10:24:00,
2013-01-19 05:29:00,54.3,51.7,30.20,ENE,58,6.1,7.0,91,0.00,OVC,,0.00,WeatherDisplay:10.37,2013-01-19 10:29:00,
2013-01-19 05:34:00,54.4,51.8,30.20,NE,41,3.8,5.0,91,0.00,OVC,,0.00,WeatherDisplay:10.37,2013-01-19 10:34:00,
2013-01-19 05:39:00,54.5,51.9,30.20,NNW,340,7.3,9.0,91,0.00,OVC,,0.00,WeatherDisplay:10.37,2013-01-19 10:39:00,
2013-01-19 05:44:00,54.5,51.9,30.20,North,1,5.7,8.1,91,0.00,OVC,,0.00,WeatherDisplay:10.37,2013-01-19 10:44:00,
2013-01-19 05:49:00,54.6,52.0,30.20,NNE,19,6.1,11.5,91,0.00,OVC,,0.00,WeatherDisplay:10.37,2013-01-19 10:49:00,
2013-01-19 05:54:00,54.7,52.1,30.20,NNE,19,4.6,8.1,91,0.00,OVC,,0.00,WeatherDisplay:10.37,2013-01-19 10:54:00,
2013-01-19 05:59:00,54.8,52.2,30.20,NNE,27,9.3,13.8,91,0.00,OVC,,0.00,WeatherDisplay:10.37,2013-01-19 10:59:00,
2013-01-19 06:04:00,54.9,52.3,30.20,NE,56,4.8,9.2,91,0.00,OVC,,0.00,WeatherDisplay:10.37,2013-01-19 11:04:00,
2013-01-19 06:09:00,54.9,52.3,30.20,NE,40,4.5,5.8,91,0.00,OVC,,0.00,WeatherDisplay:10.37,2013-01-19 11:09:00,
2013-01-19 06:14:00,54.9,52.3,30.20,North,11,4.9,9.2,91,0.00,OVC,,0.00,WeatherDisplay:10.37,2013-01-19 11:14:00,
2013-01-19 07:48:00,55.8,52.9,30.22,NNE,26,3.7,12.0,90,0.00,OVC,,0.00,WeatherDisplay:10.37,2013-01-19 12:48:00,
2013-01-19 07:53:00,55.9,53.0,30.21,North,4,5.4,10.0,90,0.00,OVC,,0.00,WeatherDisplay:10.37,2013-01-19 12:53:00,
2013-01-19 07:58:00,55.9,53.0,30.21,NNE,33,2.0,5.8,90,0.00,OVC,,0.00,WeatherDisplay:10.37,2013-01-19 12:58:00,
2013-01-19 08:26:00,57.8,54.0,30.22,NNE,28,3.8,12.0,87,0.00,OVC,,0.00,WeatherDisplay:10.37,2013-01-19 13:26:00,
2013-01-19 08:31:00,58.0,54.2,30.22,NNE,32,5.7,9.2,87,0.00,OVC,,0.00,WeatherDisplay:10.37,2013-01-19 13:31:00,
2013-01-19 08:36:00,58.1,54.2,30.22,NNE,22,5.1,6.9,87,0.00,OVC,,0.00,WeatherDisplay:10.37,2013-01-19 13:36:00,
2013-01-19 08:41:00,58.3,54.1,30.23,NNE,33,4.2,12.0,86,0.00,OVC,,0.00,WeatherDisplay:10.37,2013-01-19 13:41:00,
2013-01-19 08:47:00,58.5,54.3,30.23,North,5,2.3,9.2,86,0.00,OVC,,0.00,WeatherDisplay:10.37,2013-01-19 13:47:00,
2013-01-19 08:52:00,59.0,54.8,30.23,NE,40,2.2,3.5,86,0.00,OVC,,0.00,WeatherDisplay:10.37,2013-01-19 13:52:00,
2013-01-19 08:57:00,59.4,54.9,30.23,ENE,60,2.8,5.8,85,0.00,OVC,,0.00,WeatherDisplay:10.37,2013-01-19 13:57:00,
2013-01-19 09:02:00,60.0,55.2,30.23,North,4,3.6,9.2,84,0.00,OVC,,0.00,WeatherDisplay:10.37,2013-01-19 14:02:00,
2013-01-19 09:07:00,60.5,55.6,30.24,NE,41,3.9,10.4,84,0.00,OVC,,0.00,WeatherDisplay:10.37,2013-01-19 14:07:00,
2013-01-19 12:19:00,72.1,61.0,30.19,NNE,14,6.3,16.1,68,0.00,OVC,,0.00,WeatherDisplay:10.37,2013-01-19 17:19:00,
2013-01-19 12:25:00,72.4,61.2,30.18,NNE,27,1.4,5.8,68,0.00,OVC,,0.00,WeatherDisplay:10.37,2013-01-19 17:25:00,
2013-01-19 12:30:00,72.7,61.5,30.17,ENE,57,4.0,9.0,68,0.00,OVC,,0.00,WeatherDisplay:10.37,2013-01-19 17:30:00,
2013-01-19 12:35:00,73.4,61.8,30.17,NE,34,1.9,4.6,67,0.00,OVC,,0.00,WeatherDisplay:10.37,2013-01-19 17:35:00,
2013-01-19 12:40:00,73.6,61.5,30.17,SE,129,1.0,13.8,66,0.00,OVC,,0.00,WeatherDisplay:10.37,2013-01-19 17:40:00,
2013-01-19 12:45:00,73.4,61.3,30.17,ENE,72,2.3,11.5,66,0.00,BKN,,0.00,WeatherDisplay:10.37,2013-01-19 17:45:00,
2013-01-19 12:50:00,73.8,61.3,30.16,NE,40,3.4,9.2,65,0.00,BKN,,0.00,WeatherDisplay:10.37,2013-01-19 17:50:00,
2013-01-19 12:55:00,73.3,60.8,30.16,NE,49,8.2,15.0,65,0.00,BKN,,0.00,WeatherDisplay:10.37,2013-01-19 17:55:00,
2013-01-19 13:01:00,73.5,61.4,30.16,ENE,60,4.7,10.4,66,0.00,BKN,,0.00,WeatherDisplay:10.37,2013-01-19 18:01:00,
2013-01-19 13:06:00,73.1,61.1,30.16,ENE,68,1.9,9.2,66,0.00,BKN,,0.00,WeatherDisplay:10.37,2013-01-19 18:06:00,
2013-01-19 13:12:00,73.4,61.3,30.15,ENE,68,2.6,12.0,66,0.00,BKN,,0.00,WeatherDisplay:10.37,2013-01-19 18:12:00,
2013-01-19 13:17:00,72.7,61.1,30.15,NE,49,4.9,13.8,67,0.00,BKN,,0.00,WeatherDisplay:10.37,2013-01-19 18:17:00,
2013-01-19 13:23:00,72.9,61.3,30.15,WNW,295,5.0,11.5,67,0.00,BKN,,0.00,WeatherDisplay:10.37,2013-01-19 18:23:00,
2013-01-19 13:29:00,73.4,61.3,30.14,SSE,151,0.4,11.5,66,0.00,BKN,,0.00,WeatherDisplay:10.37,2013-01-19 18:29:00,
2013-01-19 13:34:00,73.5,61.0,30.14,NNE,22,5.5,11.5,65,0.00,BKN,,0.00,WeatherDisplay:10.37,2013-01-19 18:34:00,
2013-01-19 13:39:00,73.5,61.4,30.14,NNW,346,0.7,4.6,66,0.00,BKN,,0.00,WeatherDisplay:10.37,2013-01-19 18:39:00,
2013-01-19 13:44:00,73.3,60.8,30.14,NE,39,5.0,12.7,65,0.00,BKN,,0.00,WeatherDisplay:10.37,2013-01-19 18:44:00,
2013-01-19 13:49:00,73.1,61.5,30.13,NE,39,3.3,5.8,67,0.00,BKN,,0.00,WeatherDisplay:10.37,2013-01-19 18:49:00,
2013-01-19 13:54:00,73.0,61.0,30.13,WNW,302,2.6,11.5,66,0.00,BKN,,0.00,WeatherDisplay:10.37,2013-01-19 18:54:00,
2013-01-19 13:59:00,73.0,61.4,30.13,North,8,2.3,5.8,67,0.00,BKN,,0.00,WeatherDisplay:10.37,2013-01-19 18:59:00,
2013-01-19 14:04:00,73.1,61.1,30.12,North,352,0.5,5.8,66,0.00,BKN,,0.00,WeatherDisplay:10.37,2013-01-19 19:04:00,
2013-01-19 14:09:00,73.1,61.1,30.12,NNW,345,1.3,5.8,66,0.00,BKN,,0.00,WeatherDisplay:10.37,2013-01-19 19:09:00,
2013-01-19 14:15:00,73.5,61.4,30.12,ESE,117,2.0,5.8,66,0.00,BKN,,0.00,WeatherDisplay:10.37,2013-01-19 19:15:00,
2013-01-19 14:20:00,73.5,61.0,30.11,NE,43,7.1,13.8,65,0.00,BKN,,0.00,WeatherDisplay:10.37,2013-01-19 19:20:00,
2013-01-19 14:25:00,73.6,61.5,30.12,West,271,0.3,3.5,66,0.00,BKN,,0.00,WeatherDisplay:10.37,2013-01-19 19:25:00,
2013-01-19 14:30:00,73.7,61.2,30.11,NE,53,3.2,3.5,65,0.00,BKN,,0.00,WeatherDisplay:10.37,2013-01-19 19:30:00,
2013-01-19 14:35:00,73.6,61.5,30.11,ESE,122,2.3,6.9,66,0.00,BKN,,0.00,WeatherDisplay:10.37,2013-01-19 19:35:00,
2013-01-19 14:40:00,73.7,61.2,30.11,East,94,2.2,9.2,65,0.00,BKN,,0.00,WeatherDisplay:10.37,2013-01-19 19:40:00,
2013-01-19 14:45:00,73.9,61.8,30.11,ESE,108,0.6,3.5,66,0.00,BKN,,0.00,WeatherDisplay:10.37,2013-01-19 19:45:00,
2013-01-19 14:50:00,73.9,61.4,30.11,ENE,70,1.5,3.5,65,0.00,BKN,,0.00,WeatherDisplay:10.37,2013-01-19 19:50:00,
2013-01-19 14:56:00,73.8,61.3,30.11,NNW,345,2.8,8.1,65,0.00,BKN,,0.00,WeatherDisplay:10.37,2013-01-19 19:56:00,
2013-01-19 15:01:00,73.8,61.3,30.11,East,82,2.2,4.0,65,0.00,BKN,,0.00,WeatherDisplay:10.37,2013-01-19 20:01:00,
2013-01-19 15:06:00,73.4,60.9,30.10,East,93,3.4,9.2,65,0.00,BKN,,0.00,WeatherDisplay:10.37,2013-01-19 20:06:00,
2013-01-19 15:12:00,73.4,61.3,30.10,East,84,2.2,11.5,66,0.00,BKN,,0.00,WeatherDisplay:10.37,2013-01-19 20:12:00,
2013-01-19 15:17:00,73.5,61.4,30.10,SE,124,1.5,3.5,66,0.00,BKN,,0.00,WeatherDisplay:10.37,2013-01-19 20:17:00,
2013-01-19 15:22:00,73.7,61.2,30.10,SE,129,1.0,2.3,65,0.00,BKN,,0.00,WeatherDisplay:10.37,2013-01-19 20:22:00,
2013-01-19 15:27:00,73.9,61.8,30.10,East,82,2.4,5.0,66,0.00,BKN,,0.00,WeatherDisplay:10.37,2013-01-19 20:27:00,
2013-01-19 15:32:00,73.8,61.3,30.10,NNE,18,2.5,5.8,65,0.00,BKN,,0.00,WeatherDisplay:10.37,2013-01-19 20:32:00,
2013-01-19 15:37:00,73.8,61.7,30.10,East,101,2.6,7.0,66,0.00,BKN,,0.00,WeatherDisplay:10.37,2013-01-19 20:37:00,
2013-01-19 15:42:00,73.8,61.3,30.10,NE,55,5.0,8.1,65,0.00,OVC,,0.00,WeatherDisplay:10.37,2013-01-19 20:42:00,
2013-01-19 15:47:00,73.8,61.3,30.10,North,360,3.4,6.9,65,0.00,OVC,,0.00,WeatherDisplay:10.37,2013-01-19 20:47:00,
2013-01-19 15:52:00,73.7,61.2,30.10,North,4,1.3,3.5,65,0.00,OVC,,0.00,WeatherDisplay:10.37,2013-01-19 20:52:00,
2013-01-19 15:58:00,73.6,61.1,30.10,East,95,3.6,6.0,65,0.00,OVC,,0.00,WeatherDisplay:10.37,2013-01-19 20:58:00,
2013-01-19 16:03:00,73.5,61.4,30.10,NE,50,2.5,5.0,66,0.00,OVC,,0.00,WeatherDisplay:10.37,2013-01-19 21:03:00,
2013-01-19 16:08:00,73.5,61.0,30.10,ENE,63,2.4,8.1,65,0.00,OVC,,0.00,WeatherDisplay:10.37,2013-01-19 21:08:00,
2013-01-19 16:13:00,73.6,61.5,30.10,NNE,25,0.3,4.6,66,0.00,OVC,,0.00,WeatherDisplay:10.37,2013-01-19 21:13:00,
2013-01-19 16:19:00,73.6,62.0,30.11,NNE,20,2.5,12.0,67,0.00,OVC,,0.00,WeatherDisplay:10.37,2013-01-19 21:19:00,
2013-01-19 16:24:00,73.4,61.3,30.10,ESE,105,2.7,4.0,66,0.00,OVC,,0.00,WeatherDisplay:10.37,2013-01-19 21:24:00,
2013-01-19 16:30:00,73.5,61.9,30.11,NE,47,3.3,7.0,67,0.00,OVC,,0.00,WeatherDisplay:10.37,2013-01-19 21:30:00,
2013-01-19 16:35:00,73.7,62.1,30.11,WSW,252,0.1,1.1,67,0.00,OVC,,0.00,WeatherDisplay:10.37,2013-01-19 21:35:00,
2013-01-19 16:40:00,73.8,61.7,30.11,NW,313,1.4,3.5,66,0.00,OVC,,0.00,WeatherDisplay:10.37,2013-01-19 21:40:00,
2013-01-19 16:45:00,73.7,61.2,30.11,ENE,60,1.2,8.1,65,0.00,OVC,,0.00,WeatherDisplay:10.37,2013-01-19 21:45:00,
2013-01-19 16:51:00,73.5,61.4,30.11,East,100,0.3,1.1,66,0.00,OVC,,0.00,WeatherDisplay:10.37,2013-01-19 21:51:00,
2013-01-19 16:56:00,73.4,61.8,30.11,SE,141,2.9,8.1,67,0.00,OVC,,0.00,WeatherDisplay:10.37,2013-01-19 21:56:00,
2013-01-19 17:02:00,73.2,61.6,30.11,WSW,243,1.5,3.5,67,0.00,OVC,,0.00,WeatherDisplay:10.37,2013-01-19 22:02:00,
2013-01-19 17:08:00,73.0,61.8,30.11,NNE,32,1.1,4.6,68,0.00,OVC,,0.00,WeatherDisplay:10.37,2013-01-19 22:08:00,
2013-01-19 17:13:00,72.8,61.6,30.11,NE,55,0.4,6.9,68,0.00,OVC,,0.00,WeatherDisplay:10.37,2013-01-19 22:13:00,
2013-01-19 17:18:00,72.7,61.5,30.11,NNW,328,1.8,5.8,68,0.00,OVC,,0.00,WeatherDisplay:10.37,2013-01-19 22:18:00,
2013-01-19 17:23:00,72.5,61.7,30.11,NNE,24,0.3,1.1,69,0.00,OVC,,0.00,WeatherDisplay:10.37,2013-01-19 22:23:00,
2013-01-19 17:28:00,72.2,61.5,30.11,NNE,20,0.6,3.5,69,0.00,OVC,,0.00,WeatherDisplay:10.37,2013-01-19 22:28:00,
2013-01-19 17:33:00,71.9,61.6,30.11,North,5,1.0,6.9,70,0.00,OVC,,0.00,WeatherDisplay:10.37,2013-01-19 22:33:00,
2013-01-19 17:38:00,71.7,61.8,30.11,ENE,65,2.3,4.6,71,0.00,OVC,,0.00,WeatherDisplay:10.37,2013-01-19 22:38:00,
2013-01-19 17:43:00,71.5,61.6,30.12,NE,34,0.2,3.0,71,0.00,OVC,,0.00,WeatherDisplay:10.37,2013-01-19 22:43:00,
2013-01-19 17:48:00,71.3,61.4,30.12,North,352,0.1,1.1,71,0.00,OVC,,0.00,WeatherDisplay:10.37,2013-01-19 22:48:00,
2013-01-19 17:54:00,71.2,61.7,30.11,North,359,0.9,3.5,72,0.00,OVC,,0.00,WeatherDisplay:10.37,2013-01-19 22:54:00,
2013-01-19 17:59:00,71.0,61.5,30.11,SSW,204,1.0,3.5,72,0.00,OVC,,0.00,WeatherDisplay:10.37,2013-01-19 22:59:00,
2013-01-19 18:04:00,70.9,61.4,30.11,NNE,20,0.2,2.3,72,0.00,OVC,,0.00,WeatherDisplay:10.37,2013-01-19 23:04:00,
2013-01-19 18:10:00,70.8,61.7,30.12,NNE,15,0.3,1.1,73,0.00,OVC,,0.00,WeatherDisplay:10.37,2013-01-19 23:10:00,
2013-01-19 18:15:00,70.8,61.7,30.12,NNE,30,0.8,3.5,73,0.00,OVC,,0.00,WeatherDisplay:10.37,2013-01-19 23:15:00,
2013-01-19 18:20:00,70.7,62.0,30.12,ESE,115,2.0,8.1,74,0.00,OVC,,0.00,WeatherDisplay:10.37,2013-01-19 23:20:00,
2013-01-19 18:25:00,70.6,61.9,30.12,NNE,12,0.9,4.6,74,0.00,OVC,,0.00,WeatherDisplay:10.37,2013-01-19 23:25:00,
2013-01-19 18:30:00,70.5,61.8,30.12,ESE,121,0.3,5.8,74,0.00,OVC,,0.00,WeatherDisplay:10.37,2013-01-19 23:30:00,
2013-01-19 18:35:00,70.4,61.7,30.12,ESE,103,0.1,2.3,74,0.00,OVC,,0.00,WeatherDisplay:10.37,2013-01-19 23:35:00,
2013-01-19 18:40:00,70.3,62.0,30.13,NE,56,1.5,4.0,75,0.00,OVC,,0.00,WeatherDisplay:10.37,2013-01-19 23:40:00,
2013-01-19 18:45:00,70.3,62.0,30.13,NNE,25,0.2,2.3,75,0.00,OVC,,0.00,WeatherDisplay:10.37,2013-01-19 23:45:00,
2013-01-19 18:51:00,70.2,61.9,30.12,ENE,72,0.3,1.1,75,0.00,OVC,,0.00,WeatherDisplay:10.37,2013-01-19 23:51:00,
2013-01-19 18:56:00,70.0,61.7,30.12,ESE,105,0.4,1.1,75,0.00,OVC,,0.00,WeatherDisplay:10.37,2013-01-19 23:56:00,
2013-01-19 19:02:00,69.8,61.9,30.13,North,4,1.7,7.0,76,0.00,OVC,,0.00,WeatherDisplay:10.37,2013-01-20 00:02:00,
2013-01-19 19:08:00,69.7,61.8,30.13,East,89,2.2,5.8,76,0.00,OVC,,0.00,WeatherDisplay:10.37,2013-01-20 00:08:00,
2013-01-19 19:13:00,69.6,61.7,30.13,NE,51,0.8,3.5,76,0.00,OVC,,0.00,WeatherDisplay:10.37,2013-01-20 00:13:00,
2013-01-19 19:18:00,69.4,61.5,30.13,NNW,335,0.0,0.0,76,0.00,OVC,,0.00,WeatherDisplay:10.37,2013-01-20 00:18:00,
2013-01-19 19:24:00,69.3,61.8,30.13,ENE,64,0.1,2.3,77,0.00,OVC,,0.00,WeatherDisplay:10.37,2013-01-20 00:24:00,
2013-01-19 19:29:00,69.2,61.7,30.14,NNE,33,1.1,5.0,77,0.00,OVC,,0.00,WeatherDisplay:10.37,2013-01-20 00:29:00,
2013-01-19 19:34:00,69.1,61.6,30.13,ESE,104,0.2,3.5,77,0.00,OVC,,0.00,WeatherDisplay:10.37,2013-01-20 00:34:00,
2013-01-19 19:39:00,69.0,61.5,30.13,East,90,0.4,1.1,77,0.00,OVC,,0.00,WeatherDisplay:10.37,2013-01-20 00:39:00,
2013-01-19 19:45:00,68.8,61.7,30.13,SE,127,0.1,2.3,78,0.00,OVC,,0.00,WeatherDisplay:10.37,2013-01-20 00:45:00,
2013-01-19 19:50:00,68.7,61.6,30.13,West,262,0.0,2.3,78,0.00,OVC,,0.00,WeatherDisplay:10.37,2013-01-20 00:50:00,
2013-01-19 19:55:00,68.5,61.4,30.13,ENE,57,1.3,3.5,78,0.00,OVC,,0.00,WeatherDisplay:10.37,2013-01-20 00:55:00,
2013-01-19 20:00:00,68.4,61.3,30.14,SW,216,0.0,1.0,78,0.00,OVC,,0.00,WeatherDisplay:10.37,2013-01-20 01:00:00,
2013-01-19 20:05:00,68.2,61.4,30.14,SE,134,0.0,1.1,79,0.00,OVC,,0.00,WeatherDisplay:10.37,2013-01-20 01:05:00,
2013-01-19 20:10:00,68.0,61.2,30.14,ENE,72,0.3,2.3,79,0.00,OVC,,0.00,WeatherDisplay:10.37,2013-01-20 01:10:00,
2013-01-19 20:15:00,67.9,61.1,30.13,North,358,0.0,1.1,79,0.00,OVC,,0.00,WeatherDisplay:10.37,2013-01-20 01:15:00,
2013-01-19 20:22:00,67.6,61.2,30.14,NE,50,0.0,1.1,80,0.00,OVC,,0.00,WeatherDisplay:10.37,2013-01-20 01:22:00,
2013-01-19 20:27:00,67.3,61.3,30.14,NE,41,0.0,1.1,81,0.00,OVC,,0.00,WeatherDisplay:10.37,2013-01-20 01:27:00,
2013-01-19 20:32:00,67.1,61.1,30.14,East,79,0.0,0.0,81,0.00,OVC,,0.00,WeatherDisplay:10.37,2013-01-20 01:32:00,
2013-01-19 20:37:00,66.9,61.2,30.14,NNE,16,0.0,0.0,82,0.00,OVC,,0.00,WeatherDisplay:10.37,2013-01-20 01:37:00,
2013-01-19 20:42:00,66.7,61.0,30.14,ENE,67,0.0,1.1,82,0.00,OVC,,0.00,WeatherDisplay:10.37,2013-01-20 01:42:00,
2013-01-19 20:49:00,66.4,61.1,30.14,ENE,70,0.0,0.0,83,0.00,OVC,,0.00,WeatherDisplay:10.37,2013-01-20 01:49:00,
2013-01-19 20:55:00,66.1,60.8,30.14,ESE,114,0.0,0.0,83,0.00,OVC,,0.00,WeatherDisplay:10.37,2013-01-20 01:55:00,
2013-01-19 21:00:00,65.8,60.8,30.14,ESE,114,0.0,0.0,84,0.00,OVC,,0.00,WeatherDisplay:10.37,2013-01-20 02:00:00,
2013-01-19 21:05:00,65.6,60.6,30.14,ESE,115,0.0,0.0,84,0.00,OVC,,0.00,WeatherDisplay:10.37,2013-01-20 02:05:00,
2013-01-19 21:10:00,65.4,60.8,30.14,SE,146,0.1,1.1,85,0.00,OVC,,0.00,WeatherDisplay:10.37,2013-01-20 02:10:00,
2013-01-19 21:15:00,65.4,60.8,30.14,NE,44,0.0,1.1,85,0.00,OVC,,0.00,WeatherDisplay:10.37,2013-01-20 02:15:00,
2013-01-19 21:20:00,65.6,61.0,30.13,West,267,0.6,2.3,85,0.00,OVC,,0.00,WeatherDisplay:10.37,2013-01-20 02:20:00,
2013-01-19 21:26:00,65.7,61.1,30.13,WSW,240,0.0,0.0,85,0.00,OVC,,0.00,WeatherDisplay:10.37,2013-01-20 02:26:00,
2013-01-19 21:31:00,65.6,61.0,30.14,SE,134,0.0,0.0,85,0.00,OVC,,0.00,WeatherDisplay:10.37,2013-01-20 02:31:00,
2013-01-19 21:37:00,65.4,60.8,30.14,SE,140,0.1,1.0,85,0.00,OVC,,0.00,WeatherDisplay:10.37,2013-01-20 02:37:00,
2013-01-19 21:42:00,65.3,61.0,30.13,NNE,15,0.0,1.1,86,0.00,OVC,,0.00,WeatherDisplay:10.37,2013-01-20 02:42:00,
2013-01-19 21:47:00,65.1,60.8,30.13,NE,40,0.0,3.5,86,0.00,OVC,,0.00,WeatherDisplay:10.37,2013-01-20 02:47:00,
2013-01-19 21:52:00,65.0,60.7,30.13,ENE,60,0.0,1.1,86,0.00,OVC,,0.00,WeatherDisplay:10.37,2013-01-20 02:52:00,
2013-01-19 21:57:00,64.9,60.9,30.14,ESE,117,0.2,1.1,87,0.00,OVC,,0.00,WeatherDisplay:10.37,2013-01-20 02:57:00,
2013-01-19 22:03:00,64.8,60.8,30.14,East,87,0.0,1.0,87,0.00,OVC,,0.00,WeatherDisplay:10.37,2013-01-20 03:03:00,
2013-01-19 22:08:00,64.7,60.7,30.14,North,357,0.6,1.1,87,0.00,OVC,,0.00,WeatherDisplay:10.37,2013-01-20 03:08:00,
2013-01-19 22:13:00,64.6,60.6,30.14,WNW,297,0.0,0.0,87,0.00,OVC,,0.00,WeatherDisplay:10.37,2013-01-20 03:13:00,
2013-01-19 22:19:00,64.5,60.5,30.14,NNE,21,0.0,0.0,87,0.00,OVC,,0.00,WeatherDisplay:10.37,2013-01-20 03:19:00,
2013-01-19 22:24:00,64.2,60.6,30.14,NNE,21,0.0,0.0,88,0.00,OVC,,0.00,WeatherDisplay:10.37,2013-01-20 03:24:00,
2013-01-19 22:29:00,64.0,60.4,30.13,ESE,116,0.0,0.0,88,0.00,OVC,,0.00,WeatherDisplay:10.37,2013-01-20 03:29:00,
2013-01-19 22:34:00,63.9,60.6,30.13,NNE,33,0.1,1.1,89,0.00,OVC,,0.00,WeatherDisplay:10.37,2013-01-20 03:34:00,
2013-01-19 22:40:00,63.9,60.6,30.13,ENE,58,1.4,3.5,89,0.00,OVC,,0.00,WeatherDisplay:10.37,2013-01-20 03:40:00,
2013-01-19 22:46:00,64.1,60.8,30.14,NE,37,0.1,1.1,89,0.00,OVC,,0.00,WeatherDisplay:10.37,2013-01-20 03:46:00,
2013-01-19 22:52:00,64.1,60.8,30.14,East,88,0.1,1.1,89,0.00,OVC,,0.00,WeatherDisplay:10.37,2013-01-20 03:52:00,
2013-01-19 22:57:00,64.2,60.9,30.14,ESE,109,0.0,1.1,89,0.00,OVC,,0.00,WeatherDisplay:10.37,2013-01-20 03:57:00,
2013-01-19 23:02:00,64.2,60.9,30.13,East,86,0.0,0.0,89,0.00,OVC,,0.00,WeatherDisplay:10.37,2013-01-20 04:02:00,
2013-01-19 23:07:00,64.1,60.8,30.13,East,86,0.0,0.0,89,0.00,OVC,,0.00,WeatherDisplay:10.37,2013-01-20 04:07:00,
2013-01-19 23:12:00,64.1,60.8,30.13,East,94,0.0,2.3,89,0.00,OVC,,0.00,WeatherDisplay:10.37,2013-01-20 04:12:00,
2013-01-19 23:17:00,64.1,60.8,30.13,SE,131,0.0,0.0,89,0.00,OVC,,0.00,WeatherDisplay:10.37,2013-01-20 04:17:00,
2013-01-19 23:22:00,64.0,60.7,30.13,NE,51,0.0,1.1,89,0.00,OVC,,0.00,WeatherDisplay:10.37,2013-01-20 04:22:00,
2013-01-19 23:28:00,63.9,60.6,30.13,NNE,27,0.0,0.0,89,0.00,OVC,,0.00,WeatherDisplay:10.37,2013-01-20 04:28:00,
2013-01-19 23:33:00,63.8,60.8,30.13,SE,141,0.0,0.0,90,0.00,OVC,,0.00,WeatherDisplay:10.37,2013-01-20 04:33:00,
2013-01-19 23:38:00,63.7,60.7,30.12,SE,141,0.0,1.1,90,0.00,OVC,,0.00,WeatherDisplay:10.37,2013-01-20 04:38:00,
2013-01-19 23:44:00,63.7,60.7,30.13,NNE,33,0.1,1.1,90,0.00,OVC,,0.00,WeatherDisplay:10.37,2013-01-20 04:44:00,
2013-01-19 23:49:00,63.7,60.7,30.13,NE,43,0.0,0.0,90,0.00,OVC,,0.00,WeatherDisplay:10.37,2013-01-20 04:49:00,
2013-01-19 23:54:00,63.7,60.7,30.12,NNE,31,0.4,0.0,90,0.00,OVC,,0.00,WeatherDisplay:10.37,2013-01-20 04:54:00,
2013-01-19 23:59:00,63.7,60.7,30.12,NNE,33,0.0,0.0,90,0.00,OVC,,0.00,WeatherDisplay:10.37,2013-01-20 04:59:00,